Domov               UVHVVR             MKGP            O straneh              
ZDRAVSTVENO VARSTVO RASTLIN
  MREŽA AGROMET. POSTAJ
 ► PROGNOSTIČNA OBVESTILA
AGROMETEOROLOŠKI PODATKI -
ARSO
OBVLADOVANJE TVEGANJ ZARADI
NEUGODNIH VREMENSKIH RAZMER
  ► NARAVNE NESREČE
  ► SUŠA/MOČA
  ► NAMAKANJE
  ► ŽLED (gozdarstvo)
KARTOGRAFSKI PRIKAZI
SPLETNE POVEZAVE
PROJEKTI IN PUBLIKACIJE

AGROMETEOROLOŠKA MREŽA: VREMENSKE POSTAJE IN FENOLOŠKA OPAZOVANJA

Pregled podatkov za lokacijo Tacen, meteorološka postaja 27389

Pregled senzorjev na lokaciji

ID Ime Zadnja
vrednost
Datum
zadnje
spremembe
Tip
senzorja
2222 Padavine (mm) 1 mm 11.12.2017 10:00 Generic 0.2 mm
2225 Relativna vlaga 2 m (% RH) 99,29 % RH 11.12.2017 10:00 Generic 0 - 100 %
2226 Temperatura 2 m (°C) 7,3 °C 11.12.2017 10:00 Generic -40 - +60 °C

Pregled podatkov zadnjih 24 ur

Zap.
št.
Datum in čas Tacen
Padavine Relativna
vlaga
2
m
Temperatura
2
m
0 11.12.2017 10:00 1 99,29 7,3
1 11.12.2017 09:30 1 99,93 3,81
2 11.12.2017 09:00 1 99,93 3,79
3 11.12.2017 08:30 1 99,93 3,39
4 11.12.2017 08:00 1 99,93 3,32
5 11.12.2017 07:30 1 99,93 4,4
6 11.12.2017 07:00 1,2 99,93 3,91
7 11.12.2017 06:30 1,2 99,93 3,71
8 11.12.2017 06:00 1,4 99,93 4,35
9 11.12.2017 05:30 1,2 99,93 3,49
10 11.12.2017 05:00 1,4 99,93 2,78
11 11.12.2017 04:30 1,6 99,93 2
12 11.12.2017 04:00 1,4 99,93 1,9
13 11.12.2017 03:30 2 99,93 2,03
14 11.12.2017 03:00 2,2 99,93 2,05
15 11.12.2017 02:30 1,8 99,93 2,37
16 11.12.2017 02:00 0,4 99,73 2,15
17 11.12.2017 01:30 0 99,41 2,3
18 11.12.2017 01:00 0 98,34 2,05
19 11.12.2017 00:30 0 98,07 2,03
20 11.12.2017 00:00 0 98,95 1,81
21 10.12.2017 23:30 0 98,88 1,59
22 10.12.2017 23:00 0 99,41 1,47
23 10.12.2017 22:30 0 99,02 1,29
24 10.12.2017 22:00 0 99,8 1,03
25 10.12.2017 21:30 0 99,49 0,85
26 10.12.2017 21:00 0 99,8 0,98
27 10.12.2017 20:30 0 99,93 0,27
28 10.12.2017 20:00 0 99,93 -0,1
29 10.12.2017 19:30 0 99,76 -0,17
30 10.12.2017 19:00 0 97,56 0,02
31 10.12.2017 18:30 0 95,53 0,29
32 10.12.2017 18:00 0 93,99 0,15
33 10.12.2017 17:30 0 99,02 -0,37
34 10.12.2017 17:00 0 99,93 -0,78
35 10.12.2017 16:30 0 99,93 -1,27
36 10.12.2017 16:00 0 99,93 -1,61
37 10.12.2017 15:30 0 99,93 -1,51
38 10.12.2017 15:00 0 99,93 -2,03
39 10.12.2017 14:30 0 99,93 -2,61
40 10.12.2017 14:00 0 99,93 -3,05
41 10.12.2017 13:30 0 99,93 -3
42 10.12.2017 13:00 0 99,93 -2,98
43 10.12.2017 12:30 0 99,93 -3,25
44 10.12.2017 12:00 0 99,93 -3,69
45 10.12.2017 11:30 0 99,93 -3,71
46 10.12.2017 11:00 0 99,76 -4,54
© 2011 Ministrstvo za kmetijstvo, gozdarstvo in prehrano. Vse pravice pridržane.